Time;durP1;ratioP1;P1;durP2;ratioP2;P2;SDS_P1;SDS_P2;PMS_P1;PMS_P2;Temp;Humidity;BMP_temperature;BMP_pressure;BME280_temperature;BME280_humidity;BME280_pressure;Samples;Min_cycle;Max_cycle;Signal;HPM_P1;HPM_P2
2022/05/23 00:00:41;;;;;;;3.83;1.77;;;18.90;72.90;;;;;;4998157;28;20022;-88
2022/05/23 00:03:07;;;;;;;1.60;1.50;;;18.90;72.90;;;;;;5034298;28;20041;-88
2022/05/23 00:05:32;;;;;;;3.97;1.60;;;19.00;73.00;;;;;;4998438;28;20042;-87
2022/05/23 00:07:59;;;;;;;2.13;1.90;;;18.90;73.10;;;;;;5007821;28;20473;-88
2022/05/23 00:10:25;;;;;;;2.92;1.60;;;18.90;73.20;;;;;;5015995;28;20451;-89
2022/05/23 00:12:50;;;;;;;4.07;1.60;;;18.90;73.20;;;;;;5001373;28;20061;-87
2022/05/23 00:15:16;;;;;;;3.90;1.80;;;18.90;73.20;;;;;;4996807;28;20032;-87
2022/05/23 00:17:43;;;;;;;2.33;1.77;;;18.80;73.20;;;;;;5000351;28;20133;-88
2022/05/23 00:20:14;;;;;;;2.75;1.65;;;18.80;73.30;;;;;;5011994;28;20124;-88
2022/05/23 00:22:40;;;;;;;4.15;1.55;;;18.80;73.60;;;;;;5035080;28;20021;-87
2022/05/23 00:25:08;;;;;;;7.35;1.75;;;18.80;73.60;;;;;;5024609;28;20022;-88
2022/05/23 00:27:37;;;;;;;2.85;1.80;;;18.80;73.70;;;;;;5030586;28;20006;-89
2022/05/23 00:30:05;;;;;;;2.53;1.63;;;18.80;73.60;;;;;;5033183;28;20095;-88
2022/05/23 00:35:19;;;;;;;2.90;1.73;;;18.70;73.70;;;;;;5029184;28;20095;-87
2022/05/23 00:37:50;;;;;;;3.00;1.65;;;18.70;73.70;;;;;;5004828;28;20068;-87
2022/05/23 00:40:22;;;;;;;3.90;1.60;;;18.70;73.90;;;;;;5002998;28;20450;-88
2022/05/23 00:45:33;;;;;;;4.60;1.80;;;18.70;74.20;;;;;;5047288;28;20068;-89
2022/05/23 00:47:59;;;;;;;4.32;2.08;;;18.60;74.30;;;;;;5016005;28;20025;-87
2022/05/23 00:50:24;;;;;;;3.78;1.77;;;18.60;74.60;;;;;;5005457;28;20030;-89
2022/05/23 00:52:55;;;;;;;5.82;1.70;;;18.50;74.90;;;;;;5008156;28;20022;-88
2022/05/23 00:55:29;;;;;;;5.15;2.08;;;18.50;75.20;;;;;;5015885;28;20050;-89
2022/05/23 00:58:04;;;;;;;3.33;1.90;;;18.60;75.50;;;;;;5033989;28;20041;-88
2022/05/23 01:00:30;;;;;;;2.92;1.77;;;18.50;75.50;;;;;;5033281;28;20060;-88
2022/05/23 01:03:01;;;;;;;2.03;1.65;;;18.50;75.40;;;;;;5022896;28;20076;-88
2022/05/23 01:05:27;;;;;;;3.45;1.90;;;18.40;75.60;;;;;;5012812;28;20441;-89
2022/05/23 01:07:53;;;;;;;5.07;1.95;;;18.30;75.90;;;;;;5002800;28;20022;-89
2022/05/23 01:10:19;;;;;;;2.63;2.13;;;18.30;76.20;;;;;;5014879;28;20450;-88
2022/05/23 01:12:45;;;;;;;4.07;2.08;;;18.20;76.40;;;;;;5005901;28;20025;-88
2022/05/23 01:15:21;;;;;;;6.53;2.45;;;18.20;76.70;;;;;;5024470;28;20653;-88
2022/05/23 01:17:46;;;;;;;2.78;2.10;;;18.20;77.00;;;;;;5019976;28;20466;-88
2022/05/23 01:20:13;;;;;;;3.03;2.00;;;18.20;77.20;;;;;;5005633;28;20050;-89
2022/05/23 01:22:59;;;;;;;5.28;2.55;;;18.10;77.50;;;;;;5027110;28;20060;-88
2022/05/23 01:25:33;;;;;;;4.85;2.38;;;18.10;77.90;;;;;;4994807;28;20514;-88
2022/05/23 01:28:00;;;;;;;5.78;2.40;;;18.00;78.20;;;;;;5014191;28;20025;-89
2022/05/23 01:30:26;;;;;;;6.22;2.30;;;18.00;78.30;;;;;;5012540;28;20026;-90
2022/05/23 01:32:52;;;;;;;2.75;2.15;;;17.90;78.40;;;;;;5003197;28;20022;-88
2022/05/23 01:35:17;;;;;;;2.92;2.30;;;17.90;78.80;;;;;;5020308;28;20037;-89
2022/05/23 01:37:43;;;;;;;5.13;2.28;;;17.80;79.20;;;;;;4999914;28;20711;-89
2022/05/23 01:40:12;;;;;;;3.20;2.47;;;17.70;79.80;;;;;;5014042;28;20087;-88
2022/05/23 01:42:38;;;;;;;4.03;2.30;;;17.70;80.10;;;;;;5005119;28;20026;-88
2022/05/23 01:45:05;;;;;;;3.70;2.50;;;17.60;80.40;;;;;;5012389;28;20053;-89
2022/05/23 01:47:30;;;;;;;2.55;2.15;;;17.60;80.70;;;;;;5018660;28;20402;-89
2022/05/23 01:49:56;;;;;;;4.85;2.35;;;17.50;81.10;;;;;;5017470;28;20022;-88
2022/05/23 01:52:22;;;;;;;4.55;2.50;;;17.50;81.40;;;;;;5028060;28;20505;-87
2022/05/23 01:54:47;;;;;;;2.55;2.35;;;17.40;81.60;;;;;;5015536;28;20030;-88
2022/05/23 01:57:14;;;;;;;2.88;2.40;;;17.30;81.90;;;;;;5014328;28;20045;-88
2022/05/23 02:02:24;;;;;;;5.45;2.47;;;17.20;82.90;;;;;;5036580;28;20350;-88
2022/05/23 02:04:51;;;;;;;2.35;2.15;;;17.10;83.20;;;;;;5014319;28;20121;-88
2022/05/23 02:07:16;;;;;;;3.30;2.38;;;17.10;83.80;;;;;;5018008;28;20116;-90
2022/05/23 02:09:42;;;;;;;8.32;2.40;;;17.00;84.20;;;;;;5017275;28;20049;-88
2022/05/23 02:12:09;;;;;;;5.30;2.63;;;16.90;84.50;;;;;;5026058;28;20025;-88
2022/05/23 02:14:35;;;;;;;3.15;2.55;;;16.80;85.60;;;;;;5034927;28;20108;-88
2022/05/23 02:17:02;;;;;;;5.38;2.50;;;16.80;86.40;;;;;;4998680;28;20084;-88
2022/05/23 02:19:31;;;;;;;3.38;2.60;;;16.90;87.10;;;;;;5016050;28;20030;-88
2022/05/23 02:21:57;;;;;;;4.38;2.40;;;16.80;87.60;;;;;;5013515;28;20037;-88
2022/05/23 02:24:22;;;;;;;2.90;2.35;;;16.90;88.10;;;;;;5025375;28;20029;-88
2022/05/23 02:26:48;;;;;;;4.50;2.40;;;16.90;88.40;;;;;;5017680;28;20104;-88
2022/05/23 02:29:14;;;;;;;4.18;2.60;;;16.90;88.70;;;;;;5009541;28;20018;-88
2022/05/23 02:31:40;;;;;;;2.65;2.30;;;16.90;88.90;;;;;;4998485;28;20029;-89
2022/05/23 02:34:06;;;;;;;3.38;2.33;;;16.90;89.10;;;;;;5005586;28;20026;-88
2022/05/23 02:36:32;;;;;;;4.70;2.65;;;16.90;89.40;;;;;;5018137;28;20428;-88
2022/05/23 02:38:57;;;;;;;2.95;2.65;;;16.90;89.80;;;;;;5034301;28;20025;-88
2022/05/23 02:41:23;;;;;;;2.85;2.42;;;16.80;90.00;;;;;;4999453;28;20121;-88
2022/05/23 02:43:49;;;;;;;5.15;2.70;;;16.80;90.20;;;;;;5000893;28;20029;-88
2022/05/23 02:46:15;;;;;;;3.13;2.03;;;16.80;90.20;;;;;;5014440;28;20032;-89
2022/05/23 02:48:41;;;;;;;2.72;2.40;;;16.70;90.40;;;;;;5013564;28;20025;-88
2022/05/23 02:51:07;;;;;;;3.90;2.58;;;16.80;90.60;;;;;;5017173;28;20504;-88
2022/05/23 02:53:32;;;;;;;2.53;2.33;;;16.80;90.70;;;;;;5008797;28;20389;-88
2022/05/23 02:55:58;;;;;;;2.42;2.20;;;16.80;90.90;;;;;;5011665;28;20613;-88
2022/05/23 02:58:23;;;;;;;4.78;2.15;;;16.80;91.10;;;;;;4999545;28;20026;-88
2022/05/23 03:00:49;;;;;;;2.65;2.45;;;16.70;91.30;;;;;;5004049;28;20033;-89
2022/05/23 03:03:15;;;;;;;4.25;2.15;;;16.80;91.30;;;;;;5009077;28;20116;-88
2022/05/23 03:05:45;;;;;;;3.47;2.10;;;16.80;91.70;;;;;;5016783;28;20031;-88
2022/05/23 03:08:13;;;;;;;4.28;2.25;;;16.80;91.60;;;;;;5033799;28;20494;-88
2022/05/23 03:10:39;;;;;;;3.28;2.38;;;16.80;91.70;;;;;;5010725;28;20072;-88
2022/05/23 03:13:06;;;;;;;3.42;2.28;;;16.70;91.50;;;;;;5044341;28;20024;-90
2022/05/23 03:15:32;;;;;;;3.10;2.22;;;16.70;91.40;;;;;;5030474;28;20021;-88
2022/05/23 03:17:58;;;;;;;2.88;1.75;;;16.60;91.40;;;;;;5028653;28;20030;-88
2022/05/23 03:20:24;;;;;;;5.10;2.20;;;16.50;91.50;;;;;;5005256;28;20014;-88
2022/05/23 03:28:22;;;;;;;5.70;2.35;;;16.20;91.80;;;;;;5015319;28;20486;-89
2022/05/23 03:30:47;;;;;;;4.97;2.15;;;16.20;92.00;;;;;;5004043;28;20052;-89
2022/05/23 03:33:13;;;;;;;2.70;2.42;;;16.10;92.20;;;;;;5022554;28;20045;-88
2022/05/23 03:35:39;;;;;;;4.30;2.72;;;16.10;92.40;;;;;;5003003;28;20017;-89
2022/05/23 03:38:06;;;;;;;3.60;2.35;;;16.00;92.60;;;;;;5021814;28;20135;-89
2022/05/23 03:40:33;;;;;;;2.85;2.53;;;16.00;92.80;;;;;;4996005;28;20022;-88
2022/05/23 03:43:00;;;;;;;4.90;2.50;;;16.00;92.90;;;;;;5005025;28;20034;-88
2022/05/23 03:45:26;;;;;;;4.18;2.17;;;16.00;93.10;;;;;;5021439;28;20041;-89
2022/05/23 03:47:53;;;;;;;3.38;2.38;;;16.00;93.30;;;;;;5003680;28;20021;-88
2022/05/23 03:50:20;;;;;;;4.28;2.30;;;16.00;93.40;;;;;;5007451;28;20083;-88
2022/05/23 03:52:46;;;;;;;3.28;2.10;;;16.00;93.50;;;;;;5007604;28;20072;-88
2022/05/23 03:55:12;;;;;;;4.93;2.50;;;16.10;93.50;;;;;;5028896;28;20029;-88
2022/05/23 03:57:38;;;;;;;2.70;2.08;;;16.10;93.60;;;;;;5010490;28;20116;-89
2022/05/23 04:00:08;;;;;;;4.38;1.65;;;16.10;93.60;;;;;;5012734;28;20030;-91
2022/05/23 04:02:34;;;;;;;3.42;2.00;;;16.10;93.70;;;;;;5021582;28;20034;-89
2022/05/23 04:05:00;;;;;;;3.72;1.98;;;16.00;93.60;;;;;;5003683;28;20025;-88
2022/05/23 04:07:26;;;;;;;2.50;2.03;;;16.10;93.70;;;;;;5014220;28;20026;-89
2022/05/23 04:09:52;;;;;;;2.05;1.70;;;16.10;93.70;;;;;;5031221;28;20453;-88
2022/05/23 04:12:17;;;;;;;5.25;2.00;;;16.20;93.70;;;;;;5032612;28;20393;-88
2022/05/23 04:14:43;;;;;;;5.32;1.90;;;16.20;93.60;;;;;;5010242;28;20704;-89
2022/05/23 04:17:10;;;;;;;2.08;1.90;;;16.30;93.50;;;;;;5014424;28;20033;-87
2022/05/23 04:19:35;;;;;;;3.20;1.80;;;16.40;93.40;;;;;;5024633;28;20026;-88
2022/05/23 04:22:01;;;;;;;2.53;1.60;;;16.40;93.30;;;;;;5013818;28;20512;-88
2022/05/23 04:24:28;;;;;;;3.25;1.70;;;16.50;93.10;;;;;;4996171;28;20030;-88
2022/05/23 04:26:55;;;;;;;1.77;1.40;;;16.60;92.90;;;;;;4999796;28;20025;-88
2022/05/23 04:29:22;;;;;;;4.70;1.75;;;16.70;92.70;;;;;;5014315;28;20036;-88
2022/05/23 04:31:47;;;;;;;3.97;1.80;;;16.80;92.60;;;;;;5024936;28;20045;-88
2022/05/23 04:36:57;;;;;;;4.25;2.25;;;17.00;92.40;;;;;;5002719;22;1262138;-87
2022/05/23 04:39:23;;;;;;;4.18;1.90;;;17.10;92.40;;;;;;5023941;28;20021;-88
2022/05/23 04:41:49;;;;;;;2.15;1.95;;;17.20;92.50;;;;;;5033241;28;20032;-87
2022/05/23 04:44:15;;;;;;;2.67;1.95;;;17.30;92.70;;;;;;5069154;28;20028;-87
2022/05/23 04:49:41;;;;;;;2.53;2.33;;;17.40;92.70;;;;;;5069816;28;20021;-87
2022/05/23 04:49:44;;;;;;;4.18;2.10;;;17.40;92.50;;;;;;5075158;28;20028;-87
2022/05/23 04:52:12;;;;;;;5.43;2.20;;;17.20;92.50;;;;;;5073333;28;20036;-88
2022/05/23 04:54:39;;;;;;;2.13;1.92;;;17.10;92.60;;;;;;5076201;28;20080;-87
2022/05/23 04:57:06;;;;;;;5.30;2.35;;;17.00;92.80;;;;;;5067026;28;20571;-88
2022/05/23 04:59:33;;;;;;;6.88;2.60;;;16.90;93.30;;;;;;5092144;28;20048;-88
2022/05/23 05:01:58;;;;;;;6.05;2.10;;;16.90;93.70;;;;;;5091876;28;20032;-87
2022/05/23 05:04:24;;;;;;;2.22;2.03;;;16.90;94.20;;;;;;5087386;28;20107;-87
2022/05/23 05:06:49;;;;;;;3.47;2.47;;;16.90;94.50;;;;;;5062234;28;20575;-89
2022/05/23 05:09:16;;;;;;;4.18;2.25;;;17.00;94.90;;;;;;5059593;28;20021;-89
2022/05/23 05:11:42;;;;;;;4.07;2.28;;;17.00;95.40;;;;;;5067176;28;20022;-89
2022/05/23 05:14:07;;;;;;;3.03;2.55;;;17.10;95.60;;;;;;5074560;28;20118;-88
2022/05/23 05:16:33;;;;;;;6.28;3.00;;;17.10;96.20;;;;;;5095193;27;20023;-89
2022/05/23 05:18:59;;;;;;;7.03;3.42;;;17.10;96.40;;;;;;5104375;27;20051;-88
2022/05/23 05:21:25;;;;;;;4.05;2.80;;;17.20;96.80;;;;;;5079607;28;20040;-88
2022/05/23 05:23:51;;;;;;;9.02;3.22;;;17.10;96.80;;;;;;5092203;28;20028;-88
2022/05/23 05:26:16;;;;;;;5.82;2.95;;;17.10;97.20;;;;;;5090456;28;20480;-89
2022/05/23 05:28:42;;;;;;;6.70;2.60;;;17.00;97.60;;;;;;5085553;28;20107;-89
2022/05/23 05:31:15;;;;;;;7.15;2.38;;;16.90;97.60;;;;;;5070353;28;20017;-88
2022/05/23 05:33:46;;;;;;;9.25;2.75;;;16.90;98.00;;;;;;5062829;28;20028;-88
2022/05/23 05:36:16;;;;;;;3.55;2.60;;;16.80;98.30;;;;;;5088870;28;20046;-89
2022/05/23 05:38:49;;;;;;;5.72;3.20;;;16.80;98.70;;;;;;5071283;28;20063;-89
2022/05/23 05:41:19;;;;;;;3.72;2.88;;;16.70;99.10;;;;;;5070376;28;20119;-88
2022/05/23 05:43:52;;;;;;;9.43;3.65;;;16.50;99.10;;;;;;5069593;28;20035;-87
2022/05/23 05:46:23;;;;;;;7.22;3.42;;;16.40;99.70;;;;;;5069716;28;20489;-88
2022/05/23 05:48:50;;;;;;;9.80;3.00;;;16.40;99.80;;;;;;5085331;28;20028;-88
2022/05/23 05:51:20;;;;;;;5.68;2.70;;;16.30;99.80;;;;;;5071719;28;20282;-86
2022/05/23 05:53:47;;;;;;;6.07;3.08;;;16.10;99.90;;;;;;5065036;28;20016;-87
2022/05/23 05:56:13;;;;;;;5.05;3.50;;;16.00;99.90;;;;;;5086611;28;20040;-84
2022/05/23 05:58:39;;;;;;;6.13;3.42;;;16.00;99.90;;;;;;5083172;28;20027;-87
2022/05/23 06:01:05;;;;;;;6.57;3.67;;;16.00;99.90;;;;;;5082970;28;20050;-86
2022/05/23 06:03:32;;;;;;;3.95;3.30;;;16.00;99.90;;;;;;5091746;28;20028;-87
2022/05/23 06:11:26;;;;;;;7.43;4.35;;;15.90;99.90;;;;;;5082198;28;20039;-86
2022/05/23 06:13:56;;;;;;;5.22;4.00;;;15.90;99.90;;;;;;5090428;28;20024;-86
2022/05/23 06:16:23;;;;;;;7.43;4.68;;;15.90;99.90;;;;;;5082753;28;20028;-87
2022/05/23 06:18:50;;;;;;;10.30;4.28;;;15.90;99.90;;;;;;5070274;28;20017;-86
2022/05/23 06:21:16;;;;;;;5.05;3.80;;;16.00;99.90;;;;;;5073026;28;20020;-86
2022/05/23 06:23:43;;;;;;;8.38;3.85;;;16.10;99.90;;;;;;5072932;28;20467;-87
2022/05/23 06:26:08;;;;;;;7.47;3.72;;;16.10;99.90;;;;;;5068623;28;20075;-87
2022/05/23 06:28:36;;;;;;;6.18;3.78;;;16.20;99.90;;;;;;5071731;28;20060;-86
2022/05/23 06:31:02;;;;;;;3.85;3.17;;;16.20;99.90;;;;;;5065048;28;20404;-86
2022/05/23 06:33:29;;;;;;;5.50;3.28;;;16.30;99.90;;;;;;5094069;28;20031;-87
2022/05/23 06:35:55;;;;;;;6.68;4.03;;;16.20;99.90;;;;;;5074575;28;20028;-87
2022/05/23 06:38:21;;;;;;;4.57;3.50;;;16.20;99.90;;;;;;5074490;28;20029;-88
2022/05/23 06:40:51;;;;;;;6.00;3.50;;;16.10;99.90;;;;;;5070162;28;20024;-88
2022/05/23 06:43:17;;;;;;;5.00;3.85;;;16.00;99.90;;;;;;5076178;28;20040;-88
2022/05/23 06:45:43;;;;;;;5.10;3.72;;;16.10;99.90;;;;;;5093258;28;20483;-89
2022/05/23 06:48:09;;;;;;;5.53;3.30;;;16.10;99.90;;;;;;5074044;28;20074;-87
2022/05/23 06:50:34;;;;;;;8.32;3.38;;;16.10;99.90;;;;;;5068764;28;20017;-87
2022/05/23 06:53:00;;;;;;;4.63;3.58;;;16.20;99.90;;;;;;5076351;28;20084;-88
2022/05/23 06:55:25;;;;;;;5.28;3.35;;;16.20;99.90;;;;;;5072554;28;20032;-88
2022/05/23 06:57:51;;;;;;;5.85;3.60;;;16.20;99.90;;;;;;5077033;28;20031;-86
2022/05/23 07:00:18;;;;;;;4.75;3.38;;;16.20;99.90;;;;;;5064416;28;20032;-87
2022/05/23 07:02:44;;;;;;;3.83;3.40;;;16.20;99.90;;;;;;5075949;28;20028;-85
2022/05/23 07:13:24;;;;;;;4.43;2.92;;;16.30;99.90;;;;;;5093690;28;20545;-87
2022/05/23 07:15:51;;;;;;;5.88;3.10;;;16.30;99.90;;;;;;5084334;27;20480;-94
2022/05/23 07:18:18;;;;;;;4.05;3.05;;;16.30;99.90;;;;;;5103639;27;20031;-94
2022/05/23 07:20:45;;;;;;;3.83;2.90;;;16.40;99.90;;;;;;5096678;28;20035;-93
2022/05/23 07:23:12;;;;;;;4.43;3.10;;;16.50;99.90;;;;;;5089091;28;20024;-93
2022/05/23 07:25:38;;;;;;;3.60;3.20;;;16.70;99.90;;;;;;5095074;28;20032;-92
2022/05/23 07:28:04;;;;;;;4.22;3.10;;;16.80;99.90;;;;;;5098056;27;20119;-93
2022/05/23 07:30:31;;;;;;;4.88;3.00;;;17.00;99.90;;;;;;5097535;27;20012;-94
2022/05/23 07:32:57;;;;;;;4.35;2.75;;;17.20;99.90;;;;;;5095138;27;20005;-94
2022/05/23 07:35:23;;;;;;;5.68;3.00;;;17.40;99.90;;;;;;5088305;27;20012;-94
2022/05/23 07:37:50;;;;;;;4.13;2.83;;;17.70;99.90;;;;;;5096003;28;20016;-94
2022/05/23 07:40:16;;;;;;;6.32;2.80;;;17.80;99.90;;;;;;5098468;27;20043;-93
2022/05/23 07:45:13;;;;;;;3.20;2.65;;;18.30;99.90;;;;;;5069877;28;20075;-91
2022/05/23 07:47:39;;;;;;;4.00;2.60;;;18.50;99.90;;;;;;5065550;28;20032;-91
2022/05/23 07:50:07;;;;;;;4.20;2.40;;;18.60;99.90;;;;;;5063362;28;20021;-92
2022/05/23 07:52:32;;;;;;;5.38;2.50;;;18.80;99.90;;;;;;5061724;28;20020;-91
2022/05/23 08:00:33;;;;;;;2.75;2.50;;;19.20;99.90;;;;;;5073166;28;20096;-91
2022/05/23 08:03:18;;;;;;;3.05;2.28;;;19.30;99.90;;;;;;5064151;28;20042;-91
2022/05/23 08:05:45;;;;;;;4.93;2.28;;;19.40;99.90;;;;;;5051245;28;20037;-92
2022/05/23 08:08:10;;;;;;;4.72;2.40;;;19.50;99.90;;;;;;5059270;28;20027;-91
2022/05/23 08:10:36;;;;;;;2.60;2.20;;;19.60;99.90;;;;;;5058595;28;20025;-91
2022/05/23 08:13:09;;;;;;;2.78;2.30;;;19.70;99.90;;;;;;5039779;28;20017;-91
2022/05/23 08:15:37;;;;;;;2.72;2.03;;;19.90;99.90;;;;;;5046901;28;20090;-91
2022/05/23 08:18:04;;;;;;;2.60;2.03;;;20.10;99.90;;;;;;5055205;28;20021;-91
2022/05/23 08:20:30;;;;;;;2.38;2.00;;;20.40;99.90;;;;;;5056633;28;20032;-90
2022/05/23 08:22:57;;;;;;;2.95;2.33;;;20.60;99.90;;;;;;5049372;28;20397;-89
2022/05/23 08:25:23;;;;;;;4.35;2.15;;;20.70;99.90;;;;;;5052102;28;20037;-91
2022/05/23 08:27:49;;;;;;;4.20;1.88;;;20.70;99.90;;;;;;5064978;28;20021;-91
2022/05/23 08:30:15;;;;;;;3.25;2.10;;;20.70;99.80;;;;;;5055470;28;20032;-91
2022/05/23 08:32:41;;;;;;;4.68;1.92;;;20.70;99.50;;;;;;5056607;28;20060;-90
2022/05/23 08:35:08;;;;;;;4.43;2.03;;;20.60;99.30;;;;;;5055025;28;20040;-90
2022/05/23 08:37:34;;;;;;;2.55;1.92;;;20.40;99.10;;;;;;5049019;28;20024;-90
2022/05/23 08:40:00;;;;;;;3.45;1.92;;;20.40;99.10;;;;;;5048308;28;20025;-91
2022/05/23 08:42:40;;;;;;;5.35;2.20;;;20.30;99.10;;;;;;5051370;28;20564;-90
2022/05/23 08:45:19;;;;;;;3.58;2.00;;;20.20;99.00;;;;;;5055572;28;20056;-90
2022/05/23 08:48:17;;;;;;;3.22;2.03;;;20.20;99.30;;;;;;5054415;28;20021;-89
2022/05/23 08:50:59;;;;;;;2.50;1.83;;;20.10;99.10;;;;;;5047435;28;20036;-90
2022/05/23 08:53:59;;;;;;;1.80;1.63;;;20.20;99.30;;;;;;5043901;28;20116;-89
2022/05/23 08:56:33;;;;;;;3.55;1.50;;;20.30;99.40;;;;;;5053530;28;20036;-90
2022/05/23 08:59:02;;;;;;;2.67;1.80;;;20.30;99.20;;;;;;5055360;28;20027;-89
2022/05/23 09:01:44;;;;;;;3.35;1.80;;;20.40;98.90;;;;;;5053612;28;20021;-90
2022/05/23 09:04:24;;;;;;;3.83;1.42;;;20.50;98.40;;;;;;5054105;28;20024;-84
2022/05/23 09:06:50;;;;;;;2.67;1.55;;;20.80;98.40;;;;;;5048380;28;20029;-84
2022/05/23 09:09:19;;;;;;;5.28;1.48;;;20.90;98.20;;;;;;5060230;28;20439;-85
2022/05/23 09:11:52;;;;;;;1.58;1.30;;;21.10;97.70;;;;;;5050265;28;20111;-85
2022/05/23 09:14:19;;;;;;;3.65;1.60;;;21.30;97.50;;;;;;5071903;28;20876;-87
2022/05/23 09:16:51;;;;;;;2.45;1.38;;;21.60;97.10;;;;;;5054027;28;20033;-87
2022/05/23 09:19:40;;;;;;;1.52;1.30;;;21.80;97.00;;;;;;5072152;28;20025;-88
2022/05/23 09:22:38;;;;;;;3.03;1.60;;;21.90;96.90;;;;;;5073076;28;20107;-87
2022/05/23 09:25:05;;;;;;;5.90;1.50;;;22.20;96.60;;;;;;5079325;28;20079;-86
2022/05/23 09:27:35;;;;;;;1.85;1.42;;;22.80;96.00;;;;;;5077895;28;20409;-86
2022/05/23 09:30:04;;;;;;;5.80;1.70;;;23.90;95.20;;;;;;5073536;28;20035;-91
2022/05/23 09:32:37;;;;;;;7.00;1.38;;;25.10;92.90;;;;;;5056009;28;20025;-90
2022/05/23 09:35:25;;;;;;;2.47;1.27;;;25.90;90.80;;;;;;5051495;28;20017;-90
2022/05/23 09:38:17;;;;;;;3.42;1.38;;;27.10;89.00;;;;;;5065992;28;20366;-89
2022/05/23 09:40:44;;;;;;;3.50;1.42;;;27.90;85.10;;;;;;5068057;28;20024;-90
2022/05/23 09:49:17;;;;;;;3.38;1.40;;;26.70;79.80;;;;;;5073021;28;20036;-90
2022/05/23 09:51:58;;;;;;;4.20;1.83;;;26.50;80.30;;;;;;5053062;28;20025;-90
2022/05/23 09:54:45;;;;;;;1.92;1.33;;;26.80;79.70;;;;;;5071159;28;20060;-91
2022/05/23 09:57:48;;;;;;;2.38;1.30;;;27.90;76.80;;;;;;5072207;28;20063;-91
2022/05/23 10:00:23;;;;;;;1.83;1.40;;;29.50;72.70;;;;;;5053657;28;20024;-91
2022/05/23 10:03:00;;;;;;;3.47;1.10;;;30.50;69.60;;;;;;5055799;28;20033;-90
2022/05/23 10:05:28;;;;;;;2.58;1.20;;;31.50;66.50;;;;;;5059439;28;20515;-90
2022/05/23 10:08:00;;;;;;;2.08;1.10;;;31.90;64.30;;;;;;5075615;28;20046;-90
2022/05/23 10:10:37;;;;;;;3.40;1.30;;;32.70;60.70;;;;;;5075132;28;20032;-90
2022/05/23 10:13:31;;;;;;;7.32;1.15;;;33.60;58.50;;;;;;5057665;28;20028;-88
2022/05/23 10:16:11;;;;;;;2.67;1.13;;;34.50;56.30;;;;;;5060239;28;20059;-90
2022/05/23 10:18:48;;;;;;;2.67;1.13;;;34.70;54.00;;;;;;5074018;28;20121;-90
2022/05/23 10:21:46;;;;;;;2.78;1.45;;;33.80;54.50;;;;;;5074995;28;20035;-90
2022/05/23 10:24:26;;;;;;;3.92;1.30;;;32.30;54.90;;;;;;5047784;28;20036;-90
2022/05/23 10:27:10;;;;;;;5.35;1.40;;;31.20;56.60;;;;;;5068503;28;20453;-90
2022/05/23 10:29:57;;;;;;;3.92;1.27;;;30.50;57.00;;;;;;5061029;28;20493;-90
2022/05/23 10:32:35;;;;;;;1.70;1.20;;;29.40;59.00;;;;;;5055519;28;20063;-89
2022/05/23 10:35:19;;;;;;;3.72;1.30;;;28.80;59.80;;;;;;5054931;28;20052;-90
2022/05/23 10:43:11;;;;;;;2.85;1.70;;;27.60;61.10;;;;;;5011793;28;20061;-90
2022/05/23 10:45:46;;;;;;;4.93;1.30;;;26.80;62.20;;;;;;5001009;28;20144;-90
2022/05/23 10:48:35;;;;;;;6.05;1.60;;;26.20;63.00;;;;;;4989723;28;20089;-89
2022/05/23 10:51:14;;;;;;;3.53;1.58;;;25.80;63.70;;;;;;4996147;28;20018;-89
2022/05/23 10:54:14;;;;;;;6.15;1.70;;;25.60;64.40;;;;;;4989830;28;20030;-89
2022/05/23 10:57:02;;;;;;;5.28;1.73;;;25.40;65.00;;;;;;5002863;28;20085;-87
2022/05/23 10:59:41;;;;;;;2.03;1.40;;;25.10;65.40;;;;;;4997785;28;20097;-88
2022/05/23 11:02:30;;;;;;;4.35;1.90;;;24.90;66.30;;;;;;5016086;28;20117;-90
2022/05/23 11:05:13;;;;;;;3.55;1.75;;;24.60;66.80;;;;;;5011497;28;20033;-89
2022/05/23 11:07:39;;;;;;;2.97;1.60;;;24.60;67.50;;;;;;5028805;28;20025;-89
2022/05/23 11:10:25;;;;;;;5.05;1.80;;;24.40;67.70;;;;;;5020991;28;20030;-89
2022/05/23 11:13:29;;;;;;;2.67;1.55;;;24.20;68.40;;;;;;4991935;28;20018;-90
2022/05/23 11:16:09;;;;;;;2.60;1.60;;;24.10;68.90;;;;;;4919610;29;20593;-88
2022/05/23 11:18:38;;;;;;;3.15;1.42;;;24.00;69.70;;;;;;4993138;28;20030;-88
2022/05/23 11:21:12;;;;;;;4.75;1.60;;;24.00;70.10;;;;;;5019331;28;20019;-88
2022/05/23 11:23:45;;;;;;;3.47;1.50;;;23.90;70.80;;;;;;5015536;28;20041;-88
2022/05/23 11:26:20;;;;;;;3.15;1.70;;;23.90;71.70;;;;;;5022392;28;20026;-87
2022/05/23 11:34:44;;;;;;;5.25;1.70;;;23.90;71.90;;;;;;5019743;28;20556;-90
2022/05/23 11:38:01;;;;;;;5.85;2.50;;;24.00;72.80;;;;;;5008825;28;20246;-88
2022/05/23 11:40:12;;;;;;;5.00;2.00;;;24.00;72.80;;;;;;5009563;28;20080;-88
2022/05/23 11:42:42;;;;;;;3.17;2.45;;;24.00;73.20;;;;;;5032881;28;20022;-89
2022/05/23 11:47:55;;;;;;;7.50;2.25;;;23.90;74.30;;;;;;5030149;28;20152;-88
2022/05/23 11:50:26;;;;;;;4.15;2.20;;;23.90;75.00;;;;;;5030798;28;20028;-89
2022/05/23 11:53:26;;;;;;;3.90;2.17;;;23.80;75.30;;;;;;5020386;28;20025;-89
2022/05/23 11:55:53;;;;;;;5.65;2.45;;;23.70;75.80;;;;;;5013352;28;20265;-87
2022/05/23 11:58:45;;;;;;;8.57;2.50;;;23.60;77.10;;;;;;5005174;28;20049;-87
2022/05/23 12:01:10;;;;;;;11.83;3.13;;;23.40;77.70;;;;;;5011943;28;20037;-87
2022/05/23 12:03:51;;;;;;;7.03;3.22;;;23.00;79.20;;;;;;5021497;28;20272;-85
2022/05/23 12:06:36;;;;;;;10.60;3.95;;;22.60;81.30;;;;;;5023099;28;20081;-87
2022/05/23 12:09:16;;;;;;;7.28;4.30;;;22.20;83.50;;;;;;5023594;28;20024;-87
2022/05/23 12:11:44;;;;;;;12.05;5.00;;;21.70;85.80;;;;;;5016269;28;20033;-87
2022/05/23 12:14:19;;;;;;;10.60;4.40;;;21.10;88.00;;;;;;5010192;28;20033;-88
2022/05/23 12:17:05;;;;;;;7.35;4.70;;;20.50;91.10;;;;;;5002107;28;20028;-84
2022/05/23 12:19:50;;;;;;;10.00;5.60;;;20.10;93.80;;;;;;5025403;28;20437;-85
2022/05/23 12:22:18;;;;;;;8.95;5.30;;;19.70;96.20;;;;;;5013584;28;20029;-83
2022/05/23 12:24:59;;;;;;;11.90;5.70;;;19.50;98.30;;;;;;5030633;28;20036;-84
2022/05/23 12:27:30;;;;;;;9.00;4.95;;;19.40;99.90;;;;;;5011206;28;20021;-84
2022/05/23 12:30:21;;;;;;;8.93;5.33;;;19.30;99.90;;;;;;5012369;28;20029;-82
2022/05/23 12:36:25;;;;;;;8.73;5.50;;;19.30;99.90;;;;;;5036301;28;20541;-91
2022/05/23 12:39:14;;;;;;;11.90;5.50;;;19.20;99.90;;;;;;5017923;28;20029;-92
2022/05/23 12:42:05;;;;;;;10.98;5.60;;;19.30;99.90;;;;;;5017429;28;20455;-92
2022/05/23 12:44:46;;;;;;;7.18;5.38;;;19.40;99.90;;;;;;5035456;28;20055;-91
2022/05/23 12:47:32;;;;;;;9.15;5.95;;;19.40;99.90;;;;;;5008243;28;20482;-90
2022/05/23 12:50:11;;;;;;;8.98;4.85;;;19.50;99.90;;;;;;5019697;28;20044;-90
2022/05/23 12:53:14;;;;;;;8.50;4.97;;;19.60;99.90;;;;;;5013672;28;20022;-90
2022/05/23 12:56:16;;;;;;;12.43;5.18;;;19.60;99.90;;;;;;5026278;28;20087;-91
2022/05/23 12:59:13;;;;;;;5.53;3.80;;;19.60;99.90;;;;;;4982420;28;20073;-90
2022/05/23 13:01:43;;;;;;;5.88;3.50;;;19.60;99.90;;;;;;5006929;28;20025;-90
2022/05/23 13:04:28;;;;;;;8.02;3.60;;;19.60;99.90;;;;;;5025362;28;20032;-90
2022/05/23 13:07:45;;;;;;;8.95;3.72;;;19.60;99.90;;;;;;5007713;28;20027;-90
2022/05/23 13:33:32;;;;;;;8.30;4.25;;;19.60;99.90;;;;;;5047390;28;20516;-90
2022/05/23 13:36:04;;;;;;;5.18;3.72;;;19.70;99.90;;;;;;5052352;28;20025;-89
2022/05/23 13:38:33;;;;;;;5.47;3.65;;;19.80;99.90;;;;;;5045520;28;20082;-89
2022/05/23 13:41:01;;;;;;;7.65;3.88;;;19.80;99.90;;;;;;5034323;28;20588;-89
2022/05/23 13:43:42;;;;;;;6.72;4.18;;;19.90;99.90;;;;;;5041871;28;20032;-88
2022/05/23 13:46:21;;;;;;;11.97;4.40;;;20.00;99.90;;;;;;5050415;28;20032;-90
2022/05/23 13:49:12;;;;;;;7.22;4.30;;;20.20;99.90;;;;;;5052501;28;20029;-90
2022/05/23 13:52:18;;;;;;;8.77;4.40;;;20.30;99.90;;;;;;5046494;28;20072;-91
2022/05/23 13:55:25;;;;;;;5.65;3.95;;;20.40;99.90;;;;;;5040016;28;20097;-93
2022/05/23 13:58:10;;;;;;;6.72;3.80;;;20.50;99.90;;;;;;5045352;28;20029;-95
2022/05/23 14:01:04;;;;;;;6.72;4.13;;;20.50;99.90;;;;;;5064343;28;20012;-92
2022/05/23 14:18:44;;;;;;;7.20;3.37;;;21.10;99.90;;;;;;5051637;28;20032;-88
2022/05/23 14:22:12;;;;;;;8.32;4.15;;;21.10;99.90;;;;;;4988328;28;20031;-88
2022/05/23 14:36:39;;;;;;;6.18;3.47;;;21.40;99.90;;;;;;4829248;29;20092;-88
2022/05/23 14:40:07;;;;;;;5.72;3.33;;;21.40;99.90;;;;;;4807586;29;20039;-88
2022/05/23 15:07:16;;;;;;;7.35;3.40;;;21.90;99.90;;;;;;4797047;29;20053;-88
2022/05/23 15:13:53;;;;;;;9.30;2.63;;;22.00;99.90;;;;;;4996233;28;20545;-89
2022/05/23 15:20:48;;;;;;;4.15;2.28;;;22.10;99.90;;;;;;4967473;28;20039;-86
2022/05/23 15:27:13;;;;;;;8.48;1.92;;;22.20;99.90;;;;;;4931983;29;20039;-85
2022/05/23 15:30:00;;;;;;;5.18;1.98;;;22.30;99.90;;;;;;4901932;29;20044;-85
2022/05/23 15:32:53;;;;;;;7.13;2.13;;;22.30;99.90;;;;;;4896810;29;20033;-85
2022/05/23 15:39:25;;;;;;;11.00;2.20;;;22.30;99.90;;;;;;4907226;29;19950;-86
2022/05/23 15:52:31;;;;;;;11.30;2.05;;;22.30;99.90;;;;;;4840307;29;20105;-87
2022/05/23 16:02:28;;;;;;;8.43;2.17;;;22.20;99.90;;;;;;4813664;29;20033;-88